sensor_id;sensor_type;location;lat;lon;timestamp;pressure;altitude;pressure_sealevel;temperature;humidity
46942;BME280;32676;52.630;4.896;2023-02-23T00:00:14;101625.72;;;7.71;84.47
46942;BME280;32676;52.630;4.896;2023-02-23T00:02:46;101634.34;;;7.80;84.60
46942;BME280;32676;52.630;4.896;2023-02-23T00:05:15;101628.28;;;7.77;84.64
46942;BME280;32676;52.630;4.896;2023-02-23T00:07:42;101606.56;;;7.65;84.90
46942;BME280;32676;52.630;4.896;2023-02-23T00:10:11;101622.16;;;7.78;84.91
46942;BME280;32676;52.630;4.896;2023-02-23T00:12:38;101627.41;;;7.78;84.96
46942;BME280;32676;52.630;4.896;2023-02-23T00:15:08;101617.84;;;7.72;85.24
46942;BME280;32676;52.630;4.896;2023-02-23T00:17:34;101625.69;;;7.77;85.15
46942;BME280;32676;52.630;4.896;2023-02-23T00:20:03;101619.56;;;7.76;85.34
46942;BME280;32676;52.630;4.896;2023-02-23T00:22:36;101620.47;;;7.74;85.42
46942;BME280;32676;52.630;4.896;2023-02-23T00:25:05;101630.00;;;7.78;85.49
46942;BME280;32676;52.630;4.896;2023-02-23T00:27:34;101619.56;;;7.75;85.62
46942;BME280;32676;52.630;4.896;2023-02-23T00:30:03;101625.69;;;7.77;85.62
46942;BME280;32676;52.630;4.896;2023-02-23T00:32:33;101630.88;;;7.80;85.62
46942;BME280;32676;52.630;4.896;2023-02-23T00:35:00;101630.94;;;7.74;85.71
46942;BME280;32676;52.630;4.896;2023-02-23T00:37:26;101644.81;;;7.82;85.69
46942;BME280;32676;52.630;4.896;2023-02-23T00:39:54;101639.63;;;7.79;85.64
46942;BME280;32676;52.630;4.896;2023-02-23T00:42:21;101643.09;;;7.78;85.62
46942;BME280;32676;52.630;4.896;2023-02-23T00:44:47;101655.25;;;7.85;85.59
46942;BME280;32676;52.630;4.896;2023-02-23T00:47:14;101651.78;;;7.83;85.64
46942;BME280;32676;52.630;4.896;2023-02-23T00:49:42;101660.47;;;7.88;85.50
46942;BME280;32676;52.630;4.896;2023-02-23T00:52:10;101655.28;;;7.80;85.59
46942;BME280;32676;52.630;4.896;2023-02-23T00:54:39;101667.44;;;7.89;85.72
46942;BME280;32676;52.630;4.896;2023-02-23T00:57:05;101671.81;;;7.88;85.54
46942;BME280;32676;52.630;4.896;2023-02-23T00:59:32;101653.56;;;7.81;85.74
46942;BME280;32676;52.630;4.896;2023-02-23T01:01:58;101672.66;;;7.89;85.77
46942;BME280;32676;52.630;4.896;2023-02-23T01:04:25;101667.44;;;7.89;85.63
46942;BME280;32676;52.630;4.896;2023-02-23T01:06:53;101677.03;;;7.90;85.85
46942;BME280;32676;52.630;4.896;2023-02-23T01:09:19;101672.66;;;7.89;85.76
46942;BME280;32676;52.630;4.896;2023-02-23T01:11:54;101674.41;;;7.90;85.61
46942;BME280;32676;52.630;4.896;2023-02-23T01:14:22;101660.47;;;7.88;85.57
46942;BME280;32676;52.630;4.896;2023-02-23T01:16:48;101651.78;;;7.81;85.62
46942;BME280;32676;52.630;4.896;2023-02-23T01:19:15;101657.00;;;7.86;85.54
46942;BME280;32676;52.630;4.896;2023-02-23T01:21:42;101650.94;;;7.82;85.53
46942;BME280;32676;52.630;4.896;2023-02-23T01:24:10;101657.88;;;7.85;85.54
46942;BME280;32676;52.630;4.896;2023-02-23T01:26:39;101639.56;;;7.82;85.70
46942;BME280;32676;52.630;4.896;2023-02-23T01:29:08;101643.09;;;7.81;85.61
46942;BME280;32676;52.630;4.896;2023-02-23T01:31:37;101629.16;;;7.79;85.66
46942;BME280;32676;52.630;4.896;2023-02-23T01:34:04;101621.31;;;7.76;85.63
46942;BME280;32676;52.630;4.896;2023-02-23T01:36:33;101597.84;;;7.66;85.51
46942;BME280;32676;52.630;4.896;2023-02-23T01:39:00;101587.38;;;7.66;85.56
46942;BME280;32676;52.630;4.896;2023-02-23T01:41:32;101580.41;;;7.67;85.60
46942;BME280;32676;52.630;4.896;2023-02-23T01:44:01;101574.31;;;7.66;85.58
46942;BME280;32676;52.630;4.896;2023-02-23T01:46:30;101548.25;;;7.54;85.69
46942;BME280;32676;52.630;4.896;2023-02-23T01:48:57;101566.47;;;7.63;85.70
46942;BME280;32676;52.630;4.896;2023-02-23T01:51:26;101557.78;;;7.61;85.71
46942;BME280;32676;52.630;4.896;2023-02-23T01:53:57;101549.06;;;7.59;85.84
46942;BME280;32676;52.630;4.896;2023-02-23T01:56:28;101548.19;;;7.60;85.87
46942;BME280;32676;52.630;4.896;2023-02-23T01:58:59;101549.09;;;7.56;86.09
46942;BME280;32676;52.630;4.896;2023-02-23T02:01:28;101549.06;;;7.59;86.04
46942;BME280;32676;52.630;4.896;2023-02-23T02:03:57;101543.84;;;7.59;86.20
46942;BME280;32676;52.630;4.896;2023-02-23T02:06:26;101546.47;;;7.59;86.25
46942;BME280;32676;52.630;4.896;2023-02-23T02:08:57;101533.44;;;7.53;86.39
46942;BME280;32676;52.630;4.896;2023-02-23T02:11:26;101542.16;;;7.55;86.27
46942;BME280;32676;52.630;4.896;2023-02-23T02:14:04;101537.75;;;7.59;86.40
46942;BME280;32676;52.630;4.896;2023-02-23T02:20:03;101547.31;;;7.58;86.46
46942;BME280;32676;52.630;4.896;2023-02-23T02:25:53;101546.47;;;7.58;86.53
46942;BME280;32676;52.630;4.896;2023-02-23T02:28:57;101543.00;;;7.57;86.56
46942;BME280;32676;52.630;4.896;2023-02-23T02:31:58;101543.00;;;7.57;86.57
46942;BME280;32676;52.630;4.896;2023-02-23T02:35:03;101543.84;;;7.59;86.65
46942;BME280;32676;52.630;4.896;2023-02-23T02:37:54;101551.69;;;7.59;86.56
46942;BME280;32676;52.630;4.896;2023-02-23T02:40:30;101553.41;;;7.60;86.49
46942;BME280;32676;52.630;4.896;2023-02-23T02:43:00;101544.69;;;7.60;86.47
46942;BME280;32676;52.630;4.896;2023-02-23T02:45:40;101528.22;;;7.50;86.35
46942;BME280;32676;52.630;4.896;2023-02-23T02:48:14;101542.13;;;7.57;86.60
46942;BME280;32676;52.630;4.896;2023-02-23T02:50:48;101539.53;;;7.57;86.44
46942;BME280;32676;52.630;4.896;2023-02-23T02:53:26;101547.31;;;7.58;86.53
46942;BME280;32676;52.630;4.896;2023-02-23T02:55:57;101521.31;;;7.43;86.47
46942;BME280;32676;52.630;4.896;2023-02-23T02:58:25;101543.00;;;7.59;86.61
46942;BME280;32676;52.630;4.896;2023-02-23T03:00:53;101538.63;;;7.56;86.57
46942;BME280;32676;52.630;4.896;2023-02-23T03:03:38;101543.84;;;7.58;86.51
46942;BME280;32676;52.630;4.896;2023-02-23T03:06:26;101549.06;;;7.59;86.59
46942;BME280;32676;52.630;4.896;2023-02-23T03:09:23;101547.38;;;7.57;86.62
46942;BME280;32676;52.630;4.896;2023-02-23T03:12:10;101549.06;;;7.59;86.59
46942;BME280;32676;52.630;4.896;2023-02-23T03:15:02;101552.59;;;7.57;86.70
46942;BME280;32676;52.630;4.896;2023-02-23T03:17:59;101538.63;;;7.56;86.67
46942;BME280;32676;52.630;4.896;2023-02-23T03:20:57;101542.09;;;7.58;86.60
46942;BME280;32676;52.630;4.896;2023-02-23T03:23:48;101511.72;;;7.42;86.63
46942;BME280;32676;52.630;4.896;2023-02-23T03:26:40;101546.47;;;7.56;86.70
46942;BME280;32676;52.630;4.896;2023-02-23T03:29:30;101545.63;;;7.57;86.67
46942;BME280;32676;52.630;4.896;2023-02-23T03:32:19;101543.88;;;7.56;86.72
46942;BME280;32676;52.630;4.896;2023-02-23T03:35:08;101542.09;;;7.58;86.61
46942;BME280;32676;52.630;4.896;2023-02-23T03:38:04;101538.63;;;7.56;86.53
46942;BME280;32676;52.630;4.896;2023-02-23T03:40:50;101547.31;;;7.58;86.53
46942;BME280;32676;52.630;4.896;2023-02-23T03:43:42;101540.41;;;7.54;86.59
46942;BME280;32676;52.630;4.896;2023-02-23T03:46:29;101549.06;;;7.59;86.45
46942;BME280;32676;52.630;4.896;2023-02-23T03:49:14;101547.31;;;7.58;86.42
46942;BME280;32676;52.630;4.896;2023-02-23T03:52:05;101538.69;;;7.53;86.72
46942;BME280;32676;52.630;4.896;2023-02-23T03:54:55;101523.00;;;7.48;86.56
46942;BME280;32676;52.630;4.896;2023-02-23T03:57:40;101523.00;;;7.50;86.52
46942;BME280;32676;52.630;4.896;2023-02-23T04:00:39;101529.94;;;7.54;86.45
46942;BME280;32676;52.630;4.896;2023-02-23T04:03:26;101524.78;;;7.48;86.63
46942;BME280;32676;52.630;4.896;2023-02-23T04:06:13;101528.16;;;7.56;86.52
46942;BME280;32676;52.630;4.896;2023-02-23T04:09:01;101529.94;;;7.54;86.52
46942;BME280;32676;52.630;4.896;2023-02-23T04:11:50;101524.72;;;7.54;86.64
46942;BME280;32676;52.630;4.896;2023-02-23T04:14:37;101523.00;;;7.53;86.57
46942;BME280;32676;52.630;4.896;2023-02-23T04:17:08;101507.41;;;7.38;86.69
46942;BME280;32676;52.630;4.896;2023-02-23T04:19:33;101525.59;;;7.53;86.67
46942;BME280;32676;52.630;4.896;2023-02-23T04:22:00;101524.72;;;7.51;86.74
46942;BME280;32676;52.630;4.896;2023-02-23T04:24:27;101521.25;;;7.52;86.87
46942;BME280;32676;52.630;4.896;2023-02-23T04:26:53;101516.00;;;7.52;86.77
46942;BME280;32676;52.630;4.896;2023-02-23T04:29:20;101519.50;;;7.51;86.71
46942;BME280;32676;52.630;4.896;2023-02-23T04:31:46;101517.78;;;7.48;86.89
46942;BME280;32676;52.630;4.896;2023-02-23T04:34:15;101511.69;;;7.48;86.80
46942;BME280;32676;52.630;4.896;2023-02-23T04:36:42;101510.78;;;7.49;86.86
46942;BME280;32676;52.630;4.896;2023-02-23T04:39:08;101521.25;;;7.52;86.88
46942;BME280;32676;52.630;4.896;2023-02-23T04:41:35;101516.88;;;7.51;86.91
46942;BME280;32676;52.630;4.896;2023-02-23T04:44:02;101525.59;;;7.53;86.97
46942;BME280;32676;52.630;4.896;2023-02-23T04:46:29;101525.59;;;7.53;86.96
46942;BME280;32676;52.630;4.896;2023-02-23T04:48:56;101508.25;;;7.40;86.93
46942;BME280;32676;52.630;4.896;2023-02-23T04:51:24;101539.53;;;7.55;87.07
46942;BME280;32676;52.630;4.896;2023-02-23T04:53:55;101517.81;;;7.45;87.13
46942;BME280;32676;52.630;4.896;2023-02-23T04:56:21;101528.25;;;7.47;87.03
46942;BME280;32676;52.630;4.896;2023-02-23T04:58:48;101539.53;;;7.57;87.12
46942;BME280;32676;52.630;4.896;2023-02-23T05:01:16;101552.56;;;7.58;87.10
46942;BME280;32676;52.630;4.896;2023-02-23T05:03:43;101543.00;;;7.57;87.21
46942;BME280;32676;52.630;4.896;2023-02-23T05:06:09;101540.41;;;7.54;87.09
46942;BME280;32676;52.630;4.896;2023-02-23T05:08:38;101554.31;;;7.59;87.09
46942;BME280;32676;52.630;4.896;2023-02-23T05:11:05;101542.16;;;7.55;87.12
46942;BME280;32676;52.630;4.896;2023-02-23T05:13:32;101522.19;;;7.40;87.20
46942;BME280;32676;52.630;4.896;2023-02-23T05:15:59;101554.31;;;7.58;87.12
46942;BME280;32676;52.630;4.896;2023-02-23T05:18:26;101561.25;;;7.60;87.14
46942;BME280;32676;52.630;4.896;2023-02-23T05:20:53;101551.69;;;7.58;87.03
46942;BME280;32676;52.630;4.896;2023-02-23T05:23:26;101575.16;;;7.65;87.21
46942;BME280;32676;52.630;4.896;2023-02-23T05:25:58;101559.56;;;7.56;87.25
46942;BME280;32676;52.630;4.896;2023-02-23T05:28:30;101584.78;;;7.65;87.25
46942;BME280;32676;52.630;4.896;2023-02-23T05:30:57;101585.63;;;7.65;87.27
46942;BME280;32676;52.630;4.896;2023-02-23T05:33:24;101585.63;;;7.65;87.34
46942;BME280;32676;52.630;4.896;2023-02-23T05:35:50;101577.78;;;7.65;87.27
46942;BME280;32676;52.630;4.896;2023-02-23T05:38:18;101581.28;;;7.66;87.25
46942;BME280;32676;52.630;4.896;2023-02-23T05:40:45;101590.84;;;7.68;87.25
46942;BME280;32676;52.630;4.896;2023-02-23T05:43:13;101597.84;;;7.69;87.27
46942;BME280;32676;52.630;4.896;2023-02-23T05:45:43;101602.19;;;7.67;87.43
46942;BME280;32676;52.630;4.896;2023-02-23T05:48:10;101606.53;;;7.68;87.23
46942;BME280;32676;52.630;4.896;2023-02-23T05:50:37;101612.63;;;7.74;87.32
46942;BME280;32676;52.630;4.896;2023-02-23T05:53:03;101617.00;;;7.67;87.18
46942;BME280;32676;52.630;4.896;2023-02-23T05:55:30;101617.00;;;7.68;87.14
46942;BME280;32676;52.630;4.896;2023-02-23T05:57:56;101628.28;;;7.77;87.23
46942;BME280;32676;52.630;4.896;2023-02-23T06:00:24;101623.06;;;7.77;87.21
46942;BME280;32676;52.630;4.896;2023-02-23T06:02:51;101608.28;;;7.69;87.10
46942;BME280;32676;52.630;4.896;2023-02-23T06:05:18;101624.84;;;7.73;87.30
46942;BME280;32676;52.630;4.896;2023-02-23T06:07:45;101623.94;;;7.76;87.15
46942;BME280;32676;52.630;4.896;2023-02-23T06:10:12;101638.72;;;7.80;87.21
46942;BME280;32676;52.630;4.896;2023-02-23T06:12:38;101618.75;;;7.69;87.23
46942;BME280;32676;52.630;4.896;2023-02-23T06:15:06;101625.72;;;7.71;87.33
46942;BME280;32676;52.630;4.896;2023-02-23T06:17:34;101645.69;;;7.81;87.33
46942;BME280;32676;52.630;4.896;2023-02-23T06:20:01;101643.09;;;7.81;87.16
46942;BME280;32676;52.630;4.896;2023-02-23T06:22:29;101650.94;;;7.82;87.26
46942;BME280;32676;52.630;4.896;2023-02-23T06:24:55;101658.72;;;7.84;87.13
46942;BME280;32676;52.630;4.896;2023-02-23T06:27:22;101660.50;;;7.82;87.11
46942;BME280;32676;52.630;4.896;2023-02-23T06:29:48;101667.47;;;7.86;87.19
46942;BME280;32676;52.630;4.896;2023-02-23T06:32:15;101654.41;;;7.83;87.08
46942;BME280;32676;52.630;4.896;2023-02-23T06:34:42;101639.63;;;7.79;87.01
46942;BME280;32676;52.630;4.896;2023-02-23T06:37:09;101630.06;;;7.73;86.95
46942;BME280;32676;52.630;4.896;2023-02-23T06:39:37;101627.41;;;7.78;86.99
46942;BME280;32676;52.630;4.896;2023-02-23T06:42:03;101637.88;;;7.76;87.05
46942;BME280;32676;52.630;4.896;2023-02-23T06:44:30;101605.72;;;7.62;87.13
46942;BME280;32676;52.630;4.896;2023-02-23T06:46:59;101613.53;;;7.69;87.08
46942;BME280;32676;52.630;4.896;2023-02-23T06:49:26;101643.09;;;7.81;87.12
46942;BME280;32676;52.630;4.896;2023-02-23T06:51:54;101632.66;;;7.75;87.06
46942;BME280;32676;52.630;4.896;2023-02-23T06:54:21;101652.66;;;7.82;87.15
46942;BME280;32676;52.630;4.896;2023-02-23T06:56:48;101660.50;;;7.85;87.11
46942;BME280;32676;52.630;4.896;2023-02-23T06:59:17;101652.66;;;7.83;87.08
46942;BME280;32676;52.630;4.896;2023-02-23T07:01:44;101643.09;;;7.78;87.17
46942;BME280;32676;52.630;4.896;2023-02-23T07:04:14;101673.56;;;7.86;87.13
46942;BME280;32676;52.630;4.896;2023-02-23T07:06:40;101665.72;;;7.85;87.01
46942;BME280;32676;52.630;4.896;2023-02-23T07:09:08;101690.13;;;7.90;87.04
46942;BME280;32676;52.630;4.896;2023-02-23T07:11:35;101674.41;;;7.87;86.87
46942;BME280;32676;52.630;4.896;2023-02-23T07:14:03;101670.94;;;7.85;86.80
46942;BME280;32676;52.630;4.896;2023-02-23T07:16:30;101678.78;;;7.88;86.80
46942;BME280;32676;52.630;4.896;2023-02-23T07:18:56;101673.59;;;7.80;86.68
46942;BME280;32676;52.630;4.896;2023-02-23T07:21:23;101679.72;;;7.81;86.75
46942;BME280;32676;52.630;4.896;2023-02-23T07:23:49;101716.22;;;7.98;86.76
46942;BME280;32676;52.630;4.896;2023-02-23T07:26:17;101740.59;;;8.04;86.61
46942;BME280;32676;52.630;4.896;2023-02-23T07:28:44;101775.50;;;8.06;86.46
46942;BME280;32676;52.630;4.896;2023-02-23T07:31:11;101803.34;;;8.17;86.17
46942;BME280;32676;52.630;4.896;2023-02-23T07:33:37;101832.97;;;8.25;86.08
46942;BME280;32676;52.630;4.896;2023-02-23T07:36:04;101838.22;;;8.22;85.69
46942;BME280;32676;52.630;4.896;2023-02-23T07:38:31;101846.91;;;8.27;85.32
46942;BME280;32676;52.630;4.896;2023-02-23T07:40:59;101866.09;;;8.32;85.19
46942;BME280;32676;52.630;4.896;2023-02-23T07:43:27;101874.78;;;8.34;84.84
46942;BME280;32676;52.630;4.896;2023-02-23T07:45:58;101908.81;;;8.43;84.93
46942;BME280;32676;52.630;4.896;2023-02-23T07:48:24;101916.69;;;8.43;84.83
46942;BME280;32676;52.630;4.896;2023-02-23T07:50:51;101931.47;;;8.48;84.44
46942;BME280;32676;52.630;4.896;2023-02-23T07:53:18;101928.88;;;8.48;84.51
46942;BME280;32676;52.630;4.896;2023-02-23T07:55:44;101942.84;;;8.50;84.20
46942;BME280;32676;52.630;4.896;2023-02-23T07:58:11;101917.53;;;8.44;84.12
46942;BME280;32676;52.630;4.896;2023-02-23T08:00:39;101921.91;;;8.47;84.12
46942;BME280;32676;52.630;4.896;2023-02-23T08:03:06;101901.84;;;8.39;84.08
46942;BME280;32676;52.630;4.896;2023-02-23T08:05:33;101912.34;;;8.42;83.92
46942;BME280;32676;52.630;4.896;2023-02-23T08:08:00;101929.75;;;8.48;83.89
46942;BME280;32676;52.630;4.896;2023-02-23T08:10:26;101944.56;;;8.51;83.99
46942;BME280;32676;52.630;4.896;2023-02-23T08:12:53;101951.56;;;8.52;83.81
46942;BME280;32676;52.630;4.896;2023-02-23T08:15:20;101953.28;;;8.53;83.76
46942;BME280;32676;52.630;4.896;2023-02-23T08:17:47;101942.81;;;8.53;83.87
46942;BME280;32676;52.630;4.896;2023-02-23T08:20:14;101942.84;;;8.50;83.83
46942;BME280;32676;52.630;4.896;2023-02-23T08:22:41;101945.44;;;8.51;84.09
46942;BME280;32676;52.630;4.896;2023-02-23T08:25:08;101950.66;;;8.53;84.08
46942;BME280;32676;52.630;4.896;2023-02-23T08:27:35;101909.69;;;8.39;84.02
46942;BME280;32676;52.630;4.896;2023-02-23T08:30:04;101881.81;;;8.29;84.13
46942;BME280;32676;52.630;4.896;2023-02-23T08:32:34;101884.41;;;8.37;84.41
46942;BME280;32676;52.630;4.896;2023-02-23T08:35:02;101858.25;;;8.29;84.51
46942;BME280;32676;52.630;4.896;2023-02-23T08:37:29;101867.84;;;8.33;84.38
46942;BME280;32676;52.630;4.896;2023-02-23T08:39:56;101879.16;;;8.37;84.72
46942;BME280;32676;52.630;4.896;2023-02-23T08:42:23;101896.59;;;8.41;84.91
46942;BME280;32676;52.630;4.896;2023-02-23T08:44:50;101859.16;;;8.25;84.75
46942;BME280;32676;52.630;4.896;2023-02-23T08:47:17;101895.72;;;8.40;84.99
46942;BME280;32676;52.630;4.896;2023-02-23T08:49:46;101900.06;;;8.40;85.07
46942;BME280;32676;52.630;4.896;2023-02-23T08:52:14;101938.47;;;8.52;84.96
46942;BME280;32676;52.630;4.896;2023-02-23T08:54:42;101946.34;;;8.52;84.86
46942;BME280;32676;52.630;4.896;2023-02-23T08:57:09;101932.41;;;8.43;84.70
46942;BME280;32676;52.630;4.896;2023-02-23T08:59:35;101970.72;;;8.58;84.51
46942;BME280;32676;52.630;4.896;2023-02-23T09:02:03;101982.97;;;8.55;84.53
46942;BME280;32676;52.630;4.896;2023-02-23T09:04:31;102010.88;;;8.68;84.30
46942;BME280;32676;52.630;4.896;2023-02-23T09:06:59;101998.63;;;8.64;84.29
46942;BME280;32676;52.630;4.896;2023-02-23T09:09:27;102011.72;;;8.69;84.41
46942;BME280;32676;52.630;4.896;2023-02-23T09:11:53;102024.81;;;8.70;84.02
46942;BME280;32676;52.630;4.896;2023-02-23T09:14:20;102035.31;;;8.72;83.77
46942;BME280;32676;52.630;4.896;2023-02-23T09:16:47;102064.09;;;8.81;83.77
46942;BME280;32676;52.630;4.896;2023-02-23T09:19:13;102068.47;;;8.80;83.47
46942;BME280;32676;52.630;4.896;2023-02-23T09:21:40;102086.78;;;8.85;83.46
46942;BME280;32676;52.630;4.896;2023-02-23T09:24:08;102091.13;;;8.88;83.12
46942;BME280;32676;52.630;4.896;2023-02-23T09:26:36;102113.84;;;8.89;83.12
46942;BME280;32676;52.630;4.896;2023-02-23T09:29:05;102133.03;;;8.97;82.93
46942;BME280;32676;52.630;4.896;2023-02-23T09:31:32;102123.41;;;8.94;82.83
46942;BME280;32676;52.630;4.896;2023-02-23T09:33:59;102122.56;;;8.91;82.77
46942;BME280;32676;52.630;4.896;2023-02-23T09:36:26;102152.22;;;9.02;82.58
46942;BME280;32676;52.630;4.896;2023-02-23T09:38:54;102160.97;;;9.01;82.12
46942;BME280;32676;52.630;4.896;2023-02-23T09:41:38;102178.44;;;9.05;81.74
46942;BME280;32676;52.630;4.896;2023-02-23T09:44:14;102182.78;;;9.08;81.31
46942;BME280;32676;52.630;4.896;2023-02-23T09:46:49;102202.00;;;9.13;81.22
46942;BME280;32676;52.630;4.896;2023-02-23T09:49:24;102183.69;;;9.05;81.09
46942;BME280;32676;52.630;4.896;2023-02-23T09:51:55;102206.38;;;9.12;80.93
46942;BME280;32676;52.630;4.896;2023-02-23T09:54:27;102222.06;;;9.18;80.59
46942;BME280;32676;52.630;4.896;2023-02-23T09:56:56;102239.56;;;9.22;80.38
46942;BME280;32676;52.630;4.896;2023-02-23T09:59:23;102259.66;;;9.27;80.64
46942;BME280;32676;52.630;4.896;2023-02-23T10:02:04;102265.75;;;9.29;80.63
46942;BME280;32676;52.630;4.896;2023-02-23T10:04:37;102268.38;;;9.29;80.62
46942;BME280;32676;52.630;4.896;2023-02-23T10:07:09;102251.78;;;9.25;80.82
46942;BME280;32676;52.630;4.896;2023-02-23T10:09:47;102239.56;;;9.22;81.20
46942;BME280;32676;52.630;4.896;2023-02-23T10:12:25;102230.84;;;9.20;81.45
46942;BME280;32676;52.630;4.896;2023-02-23T10:15:08;102239.56;;;9.22;81.75
46942;BME280;32676;52.630;4.896;2023-02-23T10:17:44;102239.56;;;9.22;81.86
46942;BME280;32676;52.630;4.896;2023-02-23T10:20:21;102233.47;;;9.20;81.86
46942;BME280;32676;52.630;4.896;2023-02-23T10:22:51;102230.81;;;9.22;81.96
46942;BME280;32676;52.630;4.896;2023-02-23T10:25:22;102242.19;;;9.21;82.04
46942;BME280;32676;52.630;4.896;2023-02-23T10:27:52;102237.81;;;9.21;82.15
46942;BME280;32676;52.630;4.896;2023-02-23T10:30:22;102234.31;;;9.22;82.18
46942;BME280;32676;52.630;4.896;2023-02-23T10:32:53;102243.91;;;9.23;82.24
46942;BME280;32676;52.630;4.896;2023-02-23T10:35:22;102232.59;;;9.15;82.21
46942;BME280;32676;52.630;4.896;2023-02-23T10:37:50;102212.47;;;9.13;82.45
46942;BME280;32676;52.630;4.896;2023-02-23T10:40:19;102229.06;;;9.19;82.42
46942;BME280;32676;52.630;4.896;2023-02-23T10:42:48;102215.97;;;9.15;82.57
46942;BME280;32676;52.630;4.896;2023-02-23T10:45:19;102213.34;;;9.16;82.40
46942;BME280;32676;52.630;4.896;2023-02-23T10:47:51;102229.94;;;9.21;82.84
46942;BME280;32676;52.630;4.896;2023-02-23T10:50:18;102253.50;;;9.28;82.59
46942;BME280;32676;52.630;4.896;2023-02-23T10:52:48;102284.97;;;9.34;82.75
46942;BME280;32676;52.630;4.896;2023-02-23T10:55:22;102290.22;;;9.34;82.84
46942;BME280;32676;52.630;4.896;2023-02-23T10:58:05;102299.81;;;9.38;82.83
46942;BME280;32676;52.630;4.896;2023-02-23T11:00:36;102296.34;;;9.36;82.55
46942;BME280;32676;52.630;4.896;2023-02-23T11:03:17;102293.72;;;9.33;82.73
46942;BME280;32676;52.630;4.896;2023-02-23T11:05:48;102288.47;;;9.36;82.71
46942;BME280;32676;52.630;4.896;2023-02-23T11:08:24;102281.50;;;9.30;82.59
46942;BME280;32676;52.630;4.896;2023-02-23T11:11:16;102290.22;;;9.35;82.71
46942;BME280;32676;52.630;4.896;2023-02-23T11:13:45;102298.97;;;9.36;82.91
46942;BME280;32676;52.630;4.896;2023-02-23T11:16:14;102278.00;;;9.30;83.03
46942;BME280;32676;52.630;4.896;2023-02-23T11:18:47;102284.09;;;9.35;83.11
46942;BME280;32676;52.630;4.896;2023-02-23T11:21:21;102303.34;;;9.37;83.33
46942;BME280;32676;52.630;4.896;2023-02-23T11:23:50;102297.19;;;9.38;83.48
46942;BME280;32676;52.630;4.896;2023-02-23T11:26:29;102291.94;;;9.35;83.39
46942;BME280;32676;52.630;4.896;2023-02-23T11:29:02;102288.47;;;9.36;83.27
46942;BME280;32676;52.630;4.896;2023-02-23T11:31:36;102291.09;;;9.36;83.20
46942;BME280;32676;52.630;4.896;2023-02-23T11:34:05;102286.69;;;9.35;83.33
46942;BME280;32676;52.630;4.896;2023-02-23T11:36:34;102293.72;;;9.36;83.36
46942;BME280;32676;52.630;4.896;2023-02-23T11:39:16;102273.63;;;9.30;83.67
46942;BME280;32676;52.630;4.896;2023-02-23T11:41:44;102312.06;;;9.39;82.97
46942;BME280;32676;52.630;4.896;2023-02-23T11:44:19;102300.72;;;9.34;83.22
46942;BME280;32676;52.630;4.896;2023-02-23T11:46:48;102335.66;;;9.45;83.19
46942;BME280;32676;52.630;4.896;2023-02-23T11:49:18;102333.94;;;9.38;82.99
46942;BME280;32676;52.630;4.896;2023-02-23T11:51:48;102341.75;;;9.49;82.58
46942;BME280;32676;52.630;4.896;2023-02-23T11:54:21;102346.16;;;9.48;82.31
46942;BME280;32676;52.630;4.896;2023-02-23T11:56:52;102387.22;;;9.58;82.24
46942;BME280;32676;52.630;4.896;2023-02-23T11:59:26;102403.81;;;9.64;82.10
46942;BME280;32676;52.630;4.896;2023-02-23T12:02:00;102417.81;;;9.66;81.75
46942;BME280;32676;52.630;4.896;2023-02-23T12:04:32;102436.19;;;9.70;81.75
46942;BME280;32676;52.630;4.896;2023-02-23T12:07:21;102451.91;;;9.75;81.32
46942;BME280;32676;52.630;4.896;2023-02-23T12:09:58;102476.44;;;9.75;81.34
46942;BME280;32676;52.630;4.896;2023-02-23T12:12:28;102501.78;;;9.84;81.37
46942;BME280;32676;52.630;4.896;2023-02-23T12:15:01;102480.78;;;9.78;81.06
46942;BME280;32676;52.630;4.896;2023-02-23T12:17:39;102483.41;;;9.81;80.63
46942;BME280;32676;52.630;4.896;2023-02-23T12:20:13;102479.03;;;9.80;80.67
46942;BME280;32676;52.630;4.896;2023-02-23T12:22:44;102479.06;;;9.77;80.53
46942;BME280;32676;52.630;4.896;2023-02-23T12:25:19;102508.78;;;9.88;80.38
46942;BME280;32676;52.630;4.896;2023-02-23T12:27:54;102517.50;;;9.87;80.55
46942;BME280;32676;52.630;4.896;2023-02-23T12:30:37;102521.00;;;9.92;80.54
46942;BME280;32676;52.630;4.896;2023-02-23T12:33:11;102528.88;;;9.94;80.82
46942;BME280;32676;52.630;4.896;2023-02-23T12:35:44;102508.78;;;9.88;81.20
46942;BME280;32676;52.630;4.896;2023-02-23T12:38:18;102491.28;;;9.81;81.19
46942;BME280;32676;52.630;4.896;2023-02-23T12:40:55;102481.66;;;9.82;81.45
46942;BME280;32676;52.630;4.896;2023-02-23T12:43:28;102476.41;;;9.80;81.41
46942;BME280;32676;52.630;4.896;2023-02-23T12:46:04;102470.28;;;9.78;81.43
46942;BME280;32676;52.630;4.896;2023-02-23T12:48:37;102444.06;;;9.69;81.74
46942;BME280;32676;52.630;4.896;2023-02-23T12:51:16;102398.56;;;9.64;81.66
46942;BME280;32676;52.630;4.896;2023-02-23T12:53:44;102368.88;;;9.55;81.41
46942;BME280;32676;52.630;4.896;2023-02-23T12:56:21;102334.78;;;9.41;81.17
46942;BME280;32676;52.630;4.896;2023-02-23T12:58:58;102332.16;;;9.46;80.99
46942;BME280;32676;52.630;4.896;2023-02-23T13:01:29;102307.69;;;9.41;81.05
46942;BME280;32676;52.630;4.896;2023-02-23T13:07:15;102220.34;;;9.20;81.01
46942;BME280;32676;52.630;4.896;2023-02-23T13:09:53;102156.59;;;9.05;81.22
46942;BME280;32676;52.630;4.896;2023-02-23T13:12:42;102087.63;;;8.90;81.30
46942;BME280;32676;52.630;4.896;2023-02-23T13:15:21;102062.31;;;8.83;81.36
46942;BME280;32676;52.630;4.896;2023-02-23T13:17:54;102023.06;;;8.75;81.61
46942;BME280;32676;52.630;4.896;2023-02-23T13:20:29;101975.06;;;8.64;81.58
46942;BME280;32676;52.630;4.896;2023-02-23T13:23:04;101951.53;;;8.58;81.98
46942;BME280;32676;52.630;4.896;2023-02-23T13:25:41;101914.00;;;8.51;82.15
46942;BME280;32676;52.630;4.896;2023-02-23T13:28:16;101890.47;;;8.43;82.63
46942;BME280;32676;52.630;4.896;2023-02-23T13:30:43;101855.59;;;8.35;82.91
46942;BME280;32676;52.630;4.896;2023-02-23T13:33:17;101837.28;;;8.31;82.99